createdAt,value
2022-11-18T00:00:48.623Z,0
2022-11-18T00:01:49.632Z,0
2022-11-18T00:02:50.468Z,0
2022-11-18T00:03:50.948Z,0
2022-11-18T00:04:50.862Z,0
2022-11-18T00:05:50.760Z,0
2022-11-18T00:06:51.467Z,0
2022-11-18T00:07:52.569Z,0
2022-11-18T00:08:52.606Z,0
2022-11-18T00:09:53.814Z,0
2022-11-18T00:10:54.452Z,0
2022-11-18T00:11:55.659Z,0
2022-11-18T00:12:55.955Z,0
2022-11-18T00:13:56.455Z,0
2022-11-18T00:14:56.371Z,0
2022-11-18T00:15:56.710Z,0
2022-11-18T00:16:58.197Z,0
2022-11-18T00:17:58.165Z,0
2022-11-18T00:18:58.857Z,0
2022-11-18T00:19:59.790Z,0
2022-11-18T00:21:00.279Z,0
2022-11-18T00:22:00.768Z,0
2022-11-18T00:23:00.382Z,0
2022-11-18T00:24:00.721Z,0
2022-11-18T00:25:01.934Z,0
2022-11-18T00:26:01.824Z,0
2022-11-18T00:27:03.019Z,0
2022-11-18T00:28:03.949Z,0
2022-11-18T00:29:04.558Z,0
2022-11-18T00:30:04.189Z,0
2022-11-18T00:31:05.099Z,0
2022-11-18T00:32:05.746Z,0
2022-11-18T00:33:07.016Z,0
2022-11-18T00:34:07.636Z,0
2022-11-18T00:35:09.173Z,0
2022-11-18T00:36:09.071Z,0
2022-11-18T00:37:10.280Z,0
2022-11-18T00:38:10.898Z,0
2022-11-18T00:39:11.899Z,0
2022-11-18T00:40:12.058Z,0
2022-11-18T00:41:12.264Z,0
2022-11-18T00:42:13.478Z,0
2022-11-18T00:43:13.683Z,0
2022-11-18T00:44:20.404Z,0
2022-11-18T00:45:15.618Z,0
2022-11-18T00:46:16.807Z,0
2022-11-18T00:47:17.718Z,0
2022-11-18T00:48:18.003Z,0
2022-11-18T00:49:18.386Z,0
2022-11-18T00:50:18.447Z,0
2022-11-18T00:51:19.071Z,0
2022-11-18T00:52:19.986Z,0
2022-11-18T00:53:20.469Z,0
2022-11-18T00:54:20.376Z,0
2022-11-18T00:55:21.587Z,0
2022-11-18T00:56:21.500Z,0
2022-11-18T00:57:22.691Z,0
2022-11-18T00:58:22.336Z,0
2022-11-18T00:59:23.642Z,0
2022-11-18T01:00:23.268Z,0
2022-11-18T01:01:23.426Z,0
2022-11-18T01:02:24.529Z,0
2022-11-18T01:03:25.058Z,0
2022-11-18T01:04:24.667Z,0
2022-11-18T01:05:25.597Z,0
2022-11-18T01:06:26.494Z,0
2022-11-18T01:07:28.341Z,0
2022-11-18T01:08:28.677Z,0
2022-11-18T01:09:28.989Z,0
2022-11-18T01:10:29.923Z,0
2022-11-18T01:11:30.847Z,0
2022-11-18T01:12:32.039Z,0
2022-11-18T01:13:32.263Z,0
2022-11-18T01:14:32.894Z,0
2022-11-18T01:15:33.103Z,0
2022-11-18T01:16:34.018Z,0
2022-11-18T01:17:34.908Z,0
2022-11-18T01:18:35.829Z,0
2022-11-18T01:19:37.097Z,0
2022-11-18T01:20:36.463Z,0
2022-11-18T01:21:37.796Z,0
2022-11-18T01:22:38.726Z,0
2022-11-18T01:23:39.617Z,0
2022-11-18T01:24:40.846Z,0
2022-11-18T01:25:41.063Z,0
2022-11-18T01:26:41.278Z,0
2022-11-18T01:27:41.620Z,0
2022-11-18T01:28:41.592Z,0
2022-11-18T01:29:42.980Z,0
2022-11-18T01:30:42.890Z,0
2022-11-18T01:32:28.051Z,0
2022-11-18T01:32:44.963Z,0
2022-11-18T01:33:45.220Z,0
2022-11-18T01:34:45.420Z,0
2022-11-18T01:35:45.931Z,0
2022-11-18T01:36:46.211Z,0
2022-11-18T01:37:46.396Z,0
2022-11-18T01:38:47.012Z,0
2022-11-18T01:39:47.432Z,0
2022-11-18T01:40:48.627Z,0
2022-11-18T01:41:48.563Z,0
2022-11-18T01:42:49.192Z,0
2022-11-18T01:43:50.146Z,0
2022-11-18T01:44:50.635Z,0
2022-11-18T01:45:50.831Z,0
2022-11-18T01:46:50.746Z,0
2022-11-18T01:47:51.065Z,0
2022-11-18T01:48:52.135Z,0
2022-11-18T01:49:52.440Z,0
2022-11-18T01:50:52.641Z,0
2022-11-18T01:51:53.552Z,0
2022-11-18T01:52:58.514Z,0
2022-11-18T01:53:54.155Z,0
2022-11-18T01:54:55.369Z,0
2022-11-18T01:55:55.554Z,0
2022-11-18T01:56:56.446Z,0
2022-11-18T01:57:56.663Z,0
2022-11-18T01:58:57.863Z,0
2022-11-18T01:59:58.441Z,0
2022-11-18T02:00:58.873Z,0
2022-11-18T02:02:05.749Z,0
2022-11-18T02:02:59.431Z,0
2022-11-18T02:04:00.108Z,0
2022-11-18T02:05:01.335Z,0
2022-11-18T02:06:01.830Z,0
2022-11-18T02:07:02.540Z,0
2022-11-18T02:08:02.226Z,0
2022-11-18T02:09:03.150Z,0
2022-11-18T02:10:03.902Z,0
2022-11-18T02:11:04.817Z,0
2022-11-18T02:12:06.211Z,0
2022-11-18T02:13:06.333Z,0
2022-11-18T02:14:06.838Z,0
2022-11-18T02:15:06.772Z,0
2022-11-18T02:16:07.401Z,0
2022-11-18T02:17:08.338Z,0
2022-11-18T02:18:08.827Z,0
2022-11-18T02:19:08.790Z,0
2022-11-18T02:20:09.835Z,0
2022-11-18T02:21:10.334Z,0
2022-11-18T02:22:10.527Z,0
2022-11-18T02:23:11.140Z,0
2022-11-18T02:24:12.053Z,0
2022-11-18T02:25:13.262Z,0
2022-11-18T02:26:12.902Z,0
2022-11-18T02:27:13.803Z,0
2022-11-18T02:28:14.500Z,0
2022-11-18T02:29:15.369Z,0
2022-11-18T02:30:15.966Z,0
2022-11-18T02:31:16.155Z,0
2022-11-18T02:32:17.084Z,0
2022-11-18T02:33:17.977Z,0
2022-11-18T02:34:18.666Z,0
2022-11-18T02:35:19.553Z,0
2022-11-18T02:36:20.758Z,0
2022-11-18T02:37:20.649Z,0
2022-11-18T02:38:21.564Z,0
2022-11-18T02:39:22.605Z,0
2022-11-18T02:40:21.728Z,0
2022-11-18T02:41:22.930Z,0
2022-11-18T02:42:22.876Z,0
2022-11-18T02:43:23.787Z,0
2022-11-18T02:44:25.043Z,0
2022-11-18T02:45:24.962Z,0
2022-11-18T02:46:25.450Z,0
2022-11-18T02:47:25.339Z,0
2022-11-18T02:48:25.976Z,0
2022-11-18T02:49:27.742Z,0
2022-11-18T02:50:27.319Z,0
2022-11-18T02:51:27.043Z,0
2022-11-18T02:52:27.661Z,0
2022-11-18T02:53:28.580Z,0
2022-11-18T02:54:28.898Z,0
2022-11-18T02:55:30.390Z,0
2022-11-18T02:56:30.597Z,0
2022-11-18T02:57:30.928Z,0
2022-11-18T02:58:31.820Z,0
2022-11-18T02:59:33.044Z,0
2022-11-18T03:00:33.869Z,0
2022-11-18T03:01:34.899Z,0
2022-11-18T03:02:34.904Z,0
2022-11-18T03:03:34.537Z,0
2022-11-18T03:04:35.468Z,0
2022-11-18T03:05:36.097Z,0
2022-11-18T03:06:37.018Z,0
2022-11-18T03:07:37.903Z,0
2022-11-18T03:08:38.291Z,0
2022-11-18T03:09:39.521Z,0
2022-11-18T03:10:39.265Z,0
2022-11-18T03:11:39.887Z,0
2022-11-18T03:12:41.081Z,0
2022-11-18T03:13:41.558Z,0
2022-11-18T03:14:41.473Z,0
2022-11-18T03:15:42.100Z,0
2022-11-18T03:16:42.443Z,0
2022-11-18T03:17:43.059Z,0
2022-11-18T03:18:43.975Z,0
2022-11-18T03:19:45.231Z,0
2022-11-18T03:20:45.793Z,0
2022-11-18T03:21:45.985Z,0
2022-11-18T03:22:46.597Z,0
2022-11-18T03:23:47.495Z,0
2022-11-18T03:24:48.149Z,0
2022-11-18T03:25:49.331Z,0
2022-11-18T03:26:50.220Z,0
2022-11-18T03:27:50.851Z,0
2022-11-18T03:28:51.863Z,0
2022-11-18T03:29:52.514Z,0
2022-11-18T03:30:53.827Z,0
2022-11-18T03:31:54.014Z,0
2022-11-18T03:32:53.920Z,0
2022-11-18T03:33:54.258Z,0
2022-11-18T03:34:55.204Z,0
2022-11-18T03:35:55.550Z,0
2022-11-18T03:37:10.809Z,0
2022-11-18T03:37:57.072Z,0
2022-11-18T03:38:58.022Z,0
2022-11-18T03:39:58.509Z,0
2022-11-18T03:40:58.791Z,0
2022-11-18T03:41:58.985Z,0
2022-11-18T03:42:58.884Z,0
2022-11-18T03:44:00.121Z,0
2022-11-18T03:45:03.963Z,0
2022-11-18T03:46:01.265Z,0
2022-11-18T03:47:01.179Z,0
2022-11-18T03:48:01.096Z,0
2022-11-18T03:49:02.294Z,0
2022-11-18T03:50:03.266Z,0
2022-11-18T03:51:04.613Z,0
2022-11-18T03:52:04.859Z,0
2022-11-18T03:53:05.065Z,0
2022-11-18T03:54:05.548Z,0
2022-11-18T03:55:05.481Z,0
2022-11-18T03:56:06.445Z,0
2022-11-18T03:57:07.114Z,0
2022-11-18T03:58:06.737Z,0
2022-11-18T03:59:07.352Z,0
2022-11-18T04:00:08.012Z,0
2022-11-18T04:01:08.426Z,0
2022-11-18T04:02:10.160Z,0
2022-11-18T04:03:09.932Z,0
2022-11-18T04:04:10.869Z,0
2022-11-18T04:05:11.100Z,0
2022-11-18T04:06:11.579Z,0
2022-11-18T04:07:11.633Z,0
2022-11-18T04:08:11.625Z,0
2022-11-18T04:09:12.237Z,0
2022-11-18T04:10:12.467Z,0
2022-11-18T04:11:13.486Z,0
2022-11-18T04:12:14.450Z,0
2022-11-18T04:13:17.568Z,0
2022-11-18T04:14:14.507Z,0
2022-11-18T04:15:15.431Z,0
2022-11-18T04:16:16.644Z,0
2022-11-18T04:17:16.829Z,0
2022-11-18T04:18:16.723Z,0
2022-11-18T04:19:17.532Z,0
2022-11-18T04:20:18.432Z,0
2022-11-18T04:21:18.431Z,0
2022-11-18T04:22:19.049Z,0
2022-11-18T04:23:19.686Z,0
2022-11-18T04:24:19.594Z,0
2022-11-18T04:25:20.219Z,0
2022-11-18T04:26:20.841Z,0
2022-11-18T04:27:20.763Z,0
2022-11-18T04:28:21.950Z,0
2022-11-18T04:29:23.268Z,0
2022-11-18T04:30:22.771Z,0
2022-11-18T04:31:23.522Z,0
2022-11-18T04:32:23.714Z,0
2022-11-18T04:33:24.627Z,0
2022-11-18T04:34:25.513Z,0
2022-11-18T04:35:26.197Z,0
2022-11-18T04:36:27.109Z,0
2022-11-18T04:37:27.749Z,0
2022-11-18T04:38:33.070Z,0
2022-11-18T04:39:29.985Z,0
2022-11-18T04:40:30.321Z,0
2022-11-18T04:41:31.297Z,0
2022-11-18T04:42:31.684Z,0
2022-11-18T04:43:32.868Z,0
2022-11-18T04:44:33.363Z,0
2022-11-18T04:45:33.879Z,0
2022-11-18T04:46:33.783Z,0
2022-11-18T04:47:34.280Z,0
2022-11-18T04:48:34.184Z,0
2022-11-18T04:49:34.805Z,0
2022-11-18T04:50:35.358Z,0
2022-11-18T04:51:35.725Z,0
2022-11-18T04:52:35.364Z,0
2022-11-18T04:53:36.292Z,0
2022-11-18T04:54:36.213Z,0
2022-11-18T04:55:37.395Z,0
2022-11-18T04:56:37.884Z,0
2022-11-18T04:57:38.486Z,0
2022-11-18T04:58:39.680Z,0
2022-11-18T04:59:40.022Z,0
2022-11-18T05:00:40.941Z,0
2022-11-18T05:01:42.244Z,0
2022-11-18T05:02:42.688Z,0
2022-11-18T05:03:47.750Z,0
2022-11-18T05:04:43.982Z,0
2022-11-18T05:05:45.081Z,0
2022-11-18T05:06:45.012Z,0
2022-11-18T05:07:46.820Z,0
2022-11-18T05:08:46.816Z,0
2022-11-18T05:09:47.020Z,0
2022-11-18T05:10:47.904Z,0
2022-11-18T05:11:47.906Z,0
2022-11-18T05:12:48.528Z,0
2022-11-18T05:13:49.157Z,0
2022-11-18T05:14:56.734Z,0
2022-11-18T05:15:50.697Z,0
2022-11-18T05:16:51.656Z,0
2022-11-18T05:17:52.545Z,0
2022-11-18T05:18:53.134Z,0
2022-11-18T05:19:54.338Z,0
2022-11-18T05:20:54.998Z,0
2022-11-18T05:21:55.985Z,0
2022-11-18T05:22:55.920Z,0
2022-11-18T05:23:56.533Z,0
2022-11-18T05:24:57.721Z,0
2022-11-18T05:26:02.257Z,0
2022-11-18T05:26:58.311Z,0
2022-11-18T05:27:59.203Z,0
2022-11-18T05:28:59.394Z,0
2022-11-18T05:29:59.713Z,0
2022-11-18T05:31:00.642Z,0
2022-11-18T05:32:00.984Z,0
2022-11-18T05:33:01.175Z,0
2022-11-18T05:34:01.663Z,0
2022-11-18T05:35:01.577Z,0
2022-11-18T05:36:06.396Z,0
2022-11-18T05:37:02.912Z,0
2022-11-18T05:38:03.109Z,0
2022-11-18T05:39:03.303Z,0
2022-11-18T05:40:03.915Z,0
2022-11-18T05:41:04.801Z,0
2022-11-18T05:42:05.486Z,0
2022-11-18T05:43:06.080Z,0
2022-11-18T05:44:07.280Z,0
2022-11-18T05:45:10.027Z,0
2022-11-18T05:46:07.814Z,0
2022-11-18T05:47:09.136Z,0
2022-11-18T05:48:09.035Z,0
2022-11-18T05:49:09.225Z,0
2022-11-18T05:50:10.057Z,0
2022-11-18T05:51:11.158Z,0
2022-11-18T05:52:10.886Z,0
2022-11-18T05:53:12.458Z,0
2022-11-18T05:54:12.650Z,0
2022-11-18T05:55:12.628Z,0
2022-11-18T05:56:13.820Z,0
2022-11-18T05:57:15.039Z,0
2022-11-18T05:58:15.236Z,0
2022-11-18T05:59:16.821Z,0
2022-11-18T06:00:16.846Z,0
2022-11-18T06:01:18.059Z,0
2022-11-18T06:02:19.083Z,0
2022-11-18T06:03:19.805Z,0
2022-11-18T06:04:19.695Z,0
2022-11-18T06:05:19.583Z,0
2022-11-18T06:06:19.838Z,4
2022-11-18T06:07:21.018Z,4
2022-11-18T06:08:21.120Z,0
2022-11-18T06:09:22.736Z,0
2022-11-18T06:10:23.221Z,4
2022-11-18T06:11:22.535Z,4
2022-11-18T06:12:23.854Z,0
2022-11-18T06:13:24.467Z,4
2022-11-18T06:14:25.387Z,4
2022-11-18T06:15:26.592Z,8
2022-11-18T06:16:26.513Z,4
2022-11-18T06:17:26.937Z,8
2022-11-18T06:18:27.853Z,8
2022-11-18T06:19:28.505Z,8
2022-11-18T06:20:28.143Z,12
2022-11-18T06:21:29.211Z,8
2022-11-18T06:22:29.250Z,12
2022-11-18T06:23:29.499Z,16
2022-11-18T06:24:29.704Z,12
2022-11-18T06:25:30.898Z,16
2022-11-18T06:26:31.093Z,16
2022-11-18T06:27:31.279Z,16
2022-11-18T06:28:31.914Z,20
2022-11-18T06:29:38.709Z,20
2022-11-18T06:30:33.430Z,20
2022-11-18T06:31:34.630Z,24
2022-11-18T06:32:35.732Z,24
2022-11-18T06:33:35.930Z,24
2022-11-18T06:34:41.620Z,28
2022-11-18T06:35:36.868Z,28
2022-11-18T06:36:37.556Z,28
2022-11-18T06:37:38.184Z,28
2022-11-18T06:38:39.436Z,28
2022-11-18T06:39:39.335Z,32
2022-11-18T06:40:45.259Z,28
2022-11-18T06:41:39.875Z,32
2022-11-18T06:42:40.310Z,32
2022-11-18T06:43:41.233Z,32
2022-11-18T06:44:42.148Z,36
2022-11-18T06:45:42.135Z,36
2022-11-18T06:46:43.639Z,40
2022-11-18T06:47:44.253Z,44
2022-11-18T06:48:44.169Z,48
2022-11-18T06:49:45.363Z,52
2022-11-18T06:50:45.278Z,64
2022-11-18T06:51:46.228Z,72
2022-11-18T06:52:47.222Z,76
2022-11-18T06:53:47.856Z,88
2022-11-18T06:54:48.198Z,96
2022-11-18T06:55:49.544Z,104
2022-11-18T06:56:50.154Z,112
2022-11-18T06:57:50.198Z,116
2022-11-18T06:58:50.917Z,128
2022-11-18T06:59:51.828Z,132
2022-11-18T07:00:52.997Z,136
2022-11-18T07:01:53.127Z,140
2022-11-18T07:02:53.172Z,136
2022-11-18T07:03:54.091Z,136
2022-11-18T07:04:54.709Z,144
2022-11-18T07:05:55.686Z,140
2022-11-18T07:06:56.847Z,144
2022-11-18T07:07:57.126Z,148
2022-11-18T07:08:57.377Z,152
2022-11-18T07:09:58.596Z,160
2022-11-18T07:10:59.227Z,160
2022-11-18T07:11:59.145Z,168
2022-11-18T07:13:00.184Z,172
2022-11-18T07:14:01.112Z,176
2022-11-18T07:15:02.307Z,176
2022-11-18T07:16:02.207Z,172
2022-11-18T07:17:03.712Z,172
2022-11-18T07:18:03.972Z,164
2022-11-18T07:19:04.884Z,164
2022-11-18T07:20:05.224Z,164
2022-11-18T07:21:05.835Z,160
2022-11-18T07:22:07.602Z,164
2022-11-18T07:23:07.323Z,164
2022-11-18T07:24:07.729Z,172
2022-11-18T07:25:08.344Z,172
2022-11-18T07:26:09.285Z,180
2022-11-18T07:27:09.902Z,192
2022-11-18T07:28:10.242Z,208
2022-11-18T07:29:11.830Z,208
2022-11-18T07:30:11.827Z,216
2022-11-18T07:31:13.037Z,228
2022-11-18T07:32:13.564Z,236
2022-11-18T07:33:14.181Z,240
2022-11-18T07:34:14.125Z,248
2022-11-18T07:35:15.055Z,248
2022-11-18T07:36:15.236Z,252
2022-11-18T07:37:15.499Z,256
2022-11-18T07:38:16.418Z,260
2022-11-18T07:39:17.887Z,260
2022-11-18T07:40:18.497Z,264
2022-11-18T07:41:18.986Z,272
2022-11-18T07:42:18.881Z,288
2022-11-18T07:43:19.895Z,308
2022-11-18T07:44:19.506Z,316
2022-11-18T07:45:20.709Z,324
2022-11-18T07:46:20.633Z,328
2022-11-18T07:47:21.849Z,328
2022-11-18T07:48:22.097Z,328
2022-11-18T07:49:23.290Z,344
2022-11-18T07:50:22.484Z,360
2022-11-18T07:51:23.483Z,380
2022-11-18T07:52:24.858Z,396
2022-11-18T07:53:24.674Z,412
2022-11-18T07:54:25.921Z,440
2022-11-18T07:55:30.908Z,464
2022-11-18T07:56:26.240Z,488
2022-11-18T07:57:27.460Z,516
2022-11-18T07:58:27.726Z,528
2022-11-18T07:59:29.589Z,536
2022-11-18T08:00:29.930Z,536
2022-11-18T08:01:30.473Z,532
2022-11-18T08:02:31.277Z,544
2022-11-18T08:03:31.553Z,556
2022-11-18T08:04:31.680Z,572
2022-11-18T08:05:33.206Z,580
2022-11-18T08:06:33.845Z,584
2022-11-18T08:07:34.348Z,600
2022-11-18T08:08:34.735Z,616
2022-11-18T08:09:35.241Z,640
2022-11-18T08:10:35.174Z,668
2022-11-18T08:11:35.661Z,692
2022-11-18T08:12:35.586Z,704
2022-11-18T08:13:35.607Z,688
2022-11-18T08:14:36.805Z,692
2022-11-18T08:15:37.425Z,708
2022-11-18T08:16:37.762Z,716
2022-11-18T08:17:38.809Z,732
2022-11-18T08:18:40.140Z,756
2022-11-18T08:19:40.058Z,764
2022-11-18T08:20:40.748Z,800
2022-11-18T08:21:41.973Z,824
2022-11-18T08:22:41.959Z,860
2022-11-18T08:23:48.712Z,868
2022-11-18T08:24:44.041Z,872
2022-11-18T08:25:44.530Z,868
2022-11-18T08:26:44.724Z,876
2022-11-18T08:27:44.651Z,880
2022-11-18T08:28:45.967Z,888
2022-11-18T08:29:46.595Z,900
2022-11-18T08:30:46.789Z,904
2022-11-18T08:31:48.160Z,912
2022-11-18T08:32:48.393Z,900
2022-11-18T08:33:49.151Z,880
2022-11-18T08:34:49.412Z,900
2022-11-18T08:35:49.669Z,916
2022-11-18T08:36:49.592Z,928
2022-11-18T08:37:50.730Z,944
2022-11-18T08:38:50.931Z,948
2022-11-18T08:39:51.884Z,952
2022-11-18T08:40:52.098Z,952
2022-11-18T08:41:53.323Z,944
2022-11-18T08:42:53.699Z,960
2022-11-18T08:43:54.458Z,952
2022-11-18T08:44:55.352Z,1000
2022-11-18T08:45:55.263Z,1064
2022-11-18T08:46:56.465Z,1112
2022-11-18T08:47:57.764Z,1216
2022-11-18T08:48:57.830Z,1204
2022-11-18T08:49:58.325Z,1224
2022-11-18T08:50:58.540Z,1304
2022-11-18T08:51:58.224Z,1444
2022-11-18T08:52:59.493Z,1552
2022-11-18T08:53:59.857Z,1532
2022-11-18T08:55:00.148Z,1516
2022-11-18T08:56:07.280Z,1496
2022-11-18T08:57:01.479Z,1436
2022-11-18T08:58:01.684Z,1296
2022-11-18T08:59:02.894Z,1080
2022-11-18T09:00:02.783Z,860
2022-11-18T09:01:04.033Z,756
2022-11-18T09:02:05.588Z,696
2022-11-18T09:03:06.057Z,676
2022-11-18T09:04:06.805Z,720
2022-11-18T09:05:07.037Z,724
2022-11-18T09:06:07.268Z,784
2022-11-18T09:07:07.684Z,836
2022-11-18T09:08:07.754Z,904
2022-11-18T09:09:12.436Z,1060
2022-11-18T09:10:08.652Z,1064
2022-11-18T09:11:09.667Z,1080
2022-11-18T09:12:09.900Z,1044
2022-11-18T09:15:57.079Z,1048
2022-11-18T09:16:57.759Z,1164
2022-11-18T09:17:58.700Z,1228
2022-11-18T09:19:04.861Z,1252
2022-11-18T09:20:00.257Z,1236
2022-11-18T09:21:00.293Z,1256
2022-11-18T09:22:00.216Z,1284
2022-11-18T09:23:00.843Z,1292
2022-11-18T09:24:01.803Z,1292
2022-11-18T09:25:02.031Z,1304
2022-11-18T09:26:02.770Z,1312
2022-11-18T09:27:02.412Z,1296
2022-11-18T09:28:03.687Z,1276
2022-11-18T09:29:05.213Z,1268
2022-11-18T09:30:05.449Z,1256
2022-11-18T09:31:05.389Z,1252
2022-11-18T09:32:06.589Z,1256
2022-11-18T09:33:07.072Z,1272
2022-11-18T09:34:07.737Z,1240
2022-11-18T09:35:08.076Z,1224
2022-11-18T09:36:08.137Z,1212
2022-11-18T09:37:08.251Z,1216
2022-11-18T09:38:08.553Z,1248
2022-11-18T09:39:09.631Z,1292
2022-11-18T09:40:10.630Z,1376
2022-11-18T09:41:10.943Z,1516
2022-11-18T09:42:11.146Z,1548
2022-11-18T09:43:11.397Z,1548
2022-11-18T09:44:11.360Z,1680
2022-11-18T09:45:24.790Z,1744
2022-11-18T09:46:13.310Z,1720
2022-11-18T09:47:13.977Z,1720
2022-11-18T09:48:14.933Z,1680
2022-11-18T09:49:17.145Z,1640
2022-11-18T09:50:56.202Z,1580
2022-11-18T09:51:18.129Z,1572
2022-11-18T09:52:18.755Z,1476
2022-11-18T09:53:19.973Z,1392
2022-11-18T09:54:20.205Z,1276
2022-11-18T09:55:21.507Z,1248
2022-11-18T09:56:21.523Z,1196
2022-11-18T09:57:21.822Z,1268
2022-11-18T09:58:22.473Z,1376
2022-11-18T09:59:22.658Z,1372
2022-11-18T10:00:23.856Z,1372
2022-11-18T10:01:25.472Z,1364
2022-11-18T10:02:24.246Z,1372
2022-11-18T10:03:25.296Z,1260
2022-11-18T10:04:26.024Z,1232
2022-11-18T10:05:25.981Z,1220
2022-11-18T10:06:31.677Z,1312
2022-11-18T10:07:26.608Z,1316
2022-11-18T10:08:27.002Z,1420
2022-11-18T10:09:26.974Z,1616
2022-11-18T10:10:28.173Z,1768
2022-11-18T10:11:29.047Z,1844
2022-11-18T10:12:29.070Z,1836
2022-11-18T10:13:30.002Z,1792
2022-11-18T10:14:31.740Z,1692
2022-11-18T10:15:31.970Z,1544
2022-11-18T10:16:32.344Z,1532
2022-11-18T10:17:32.559Z,1492
2022-11-18T10:19:06.657Z,1488
2022-11-18T10:19:33.607Z,1516
2022-11-18T10:20:34.134Z,1588
2022-11-18T10:21:34.707Z,1500
2022-11-18T10:22:36.377Z,1476
2022-11-18T10:23:35.592Z,1480
2022-11-18T10:24:35.890Z,1568
2022-11-18T10:25:36.092Z,1492
2022-11-18T10:26:36.851Z,1356
2022-11-18T10:27:37.197Z,1236
2022-11-18T10:28:38.118Z,1204
2022-11-18T10:29:38.641Z,1156
2022-11-18T10:30:38.891Z,1144
2022-11-18T10:31:38.812Z,1140
2022-11-18T10:32:39.538Z,1132
2022-11-18T10:33:40.651Z,1140
2022-11-18T10:34:40.887Z,1188
2022-11-18T10:35:41.523Z,1256
2022-11-18T10:36:41.877Z,1148
2022-11-18T10:38:17.082Z,868
2022-11-18T10:38:48.571Z,832
2022-11-18T10:39:44.278Z,876
2022-11-18T10:40:44.219Z,984
2022-11-18T10:41:45.037Z,984
2022-11-18T10:42:45.678Z,956
2022-11-18T10:43:46.882Z,1016
2022-11-18T10:44:47.440Z,1008
2022-11-18T10:45:47.366Z,956
2022-11-18T10:46:48.089Z,1024
2022-11-18T10:47:48.340Z,1048
2022-11-18T10:48:47.964Z,1048
2022-11-18T10:49:48.885Z,1040
2022-11-18T10:50:53.721Z,1016
2022-11-18T10:51:50.477Z,984
2022-11-18T10:52:50.687Z,980
2022-11-18T10:53:51.334Z,972
2022-11-18T10:54:52.636Z,908
2022-11-18T10:55:52.843Z,856
2022-11-18T10:56:58.429Z,844
2022-11-18T10:57:53.417Z,864
2022-11-18T10:58:53.609Z,888
2022-11-18T10:59:54.536Z,852
2022-11-18T11:00:54.565Z,816
2022-11-18T11:01:55.651Z,860
2022-11-18T11:02:56.281Z,964
2022-11-18T11:03:57.317Z,1000
2022-11-18T11:04:57.849Z,1028
2022-11-18T11:05:58.416Z,1064
2022-11-18T11:06:59.021Z,1024
2022-11-18T11:08:41.795Z,868
2022-11-18T11:08:58.142Z,856
2022-11-18T11:09:59.120Z,812
2022-11-18T11:11:04.066Z,740
2022-11-18T11:11:59.991Z,668
2022-11-18T11:13:01.500Z,620
2022-11-18T11:14:01.897Z,608
2022-11-18T11:15:02.551Z,576
2022-11-18T11:16:03.764Z,568
2022-11-18T11:17:04.399Z,688
2022-11-18T11:18:04.960Z,820
2022-11-18T11:19:04.603Z,848
2022-11-18T11:20:05.334Z,780
2022-11-18T11:21:05.679Z,668
2022-11-18T11:22:07.189Z,528
2022-11-18T11:23:07.404Z,508
2022-11-18T11:24:07.609Z,544
2022-11-18T11:25:08.890Z,564
2022-11-18T11:28:56.247Z,664
2022-11-18T11:29:56.441Z,688
2022-11-18T11:30:57.851Z,704
2022-11-18T11:31:57.824Z,656
2022-11-18T11:32:58.311Z,604
2022-11-18T11:33:58.213Z,600
2022-11-18T11:34:58.796Z,648
2022-11-18T11:35:58.762Z,700
2022-11-18T11:36:59.689Z,708
2022-11-18T11:37:59.896Z,668
2022-11-18T11:39:21.511Z,556
2022-11-18T11:40:00.809Z,532
2022-11-18T11:41:02.091Z,572
2022-11-18T11:42:02.004Z,640
2022-11-18T11:43:02.917Z,684
2022-11-18T11:44:03.833Z,724
2022-11-18T11:45:03.456Z,760
2022-11-18T11:46:04.661Z,796
2022-11-18T11:47:05.154Z,788
2022-11-18T11:48:05.352Z,832
2022-11-18T11:49:05.384Z,912
2022-11-18T11:50:06.674Z,940
2022-11-18T11:51:14.781Z,960
2022-11-18T11:52:06.968Z,976
2022-11-18T11:53:07.539Z,1024
2022-11-18T11:54:07.460Z,1040
2022-11-18T11:55:08.676Z,1100
2022-11-18T11:56:08.670Z,1184
2022-11-18T11:57:09.666Z,1220
2022-11-18T11:58:09.616Z,1260
2022-11-18T11:59:10.248Z,1320
2022-11-18T12:00:10.755Z,1304
2022-11-18T12:01:12.250Z,1252
2022-11-18T12:02:12.168Z,1200
2022-11-18T12:03:13.637Z,1204
2022-11-18T12:04:13.724Z,1156
2022-11-18T12:05:14.796Z,1140
2022-11-18T12:06:16.361Z,1140
2022-11-18T12:07:17.015Z,1124
2022-11-18T12:08:18.726Z,1112
2022-11-18T12:09:19.063Z,1108
2022-11-18T12:10:19.006Z,1088
2022-11-18T12:11:20.330Z,1072
2022-11-18T12:12:20.527Z,1040
2022-11-18T12:13:21.149Z,972
2022-11-18T12:14:21.669Z,964
2022-11-18T12:15:21.311Z,964
2022-11-18T12:16:22.227Z,968
2022-11-18T12:17:23.190Z,968
2022-11-18T12:18:24.442Z,960
2022-11-18T12:19:24.764Z,972
2022-11-18T12:20:24.680Z,984
2022-11-18T12:21:24.926Z,976
2022-11-18T12:22:25.853Z,972
2022-11-18T12:23:26.106Z,964
2022-11-18T12:24:27.345Z,932
2022-11-18T12:25:26.942Z,928
2022-11-18T12:26:28.758Z,936
2022-11-18T12:27:29.065Z,936
2022-11-18T12:28:29.383Z,932
2022-11-18T12:29:30.309Z,896
2022-11-18T12:30:30.845Z,864
2022-11-18T12:31:31.045Z,848
2022-11-18T12:32:31.670Z,832
2022-11-18T12:33:32.606Z,812
2022-11-18T12:34:33.813Z,808
2022-11-18T12:35:34.302Z,824
2022-11-18T12:36:34.547Z,792
2022-11-18T12:37:34.759Z,788
2022-11-18T12:38:35.270Z,768
2022-11-18T12:39:35.310Z,764
2022-11-18T12:40:35.624Z,748
2022-11-18T12:41:36.943Z,728
2022-11-18T12:42:36.551Z,716
2022-11-18T12:43:37.749Z,704
2022-11-18T12:44:38.381Z,704
2022-11-18T12:45:39.326Z,708
2022-11-18T12:46:45.487Z,720
2022-11-18T12:47:41.276Z,716
2022-11-18T12:48:41.886Z,716
2022-11-18T12:49:42.970Z,720
2022-11-18T12:50:44.180Z,716
2022-11-18T12:51:44.094Z,712
2022-11-18T12:52:44.027Z,708
2022-11-18T12:53:45.365Z,692
2022-11-18T12:54:45.269Z,684
2022-11-18T12:55:46.183Z,700
2022-11-18T12:56:46.129Z,708
2022-11-18T12:57:47.061Z,676
2022-11-18T12:58:46.977Z,644
2022-11-18T12:59:48.292Z,660
2022-11-18T13:00:49.013Z,800
2022-11-18T13:01:49.029Z,684
2022-11-18T13:02:49.375Z,704
2022-11-18T13:03:50.300Z,728
2022-11-18T13:04:58.909Z,696
2022-11-18T13:05:52.124Z,732
2022-11-18T13:06:52.835Z,852
2022-11-18T13:07:52.558Z,888
2022-11-18T13:08:52.897Z,824
2022-11-18T13:09:54.336Z,1072
2022-11-18T13:11:01.652Z,1492
2022-11-18T13:11:56.392Z,944
2022-11-18T13:12:55.432Z,828
2022-11-18T13:13:56.350Z,860
2022-11-18T13:14:57.279Z,904
2022-11-18T13:15:57.531Z,876
2022-11-18T13:16:57.729Z,812
2022-11-18T13:17:58.948Z,768
2022-11-18T13:18:58.852Z,804
2022-11-18T13:20:00.169Z,880
2022-11-18T13:21:00.113Z,916
2022-11-18T13:22:01.322Z,804
2022-11-18T13:23:01.239Z,736
2022-11-18T13:24:07.291Z,704
2022-11-18T13:25:03.232Z,744
2022-11-18T13:26:03.405Z,928
2022-11-18T13:27:04.342Z,1088
2022-11-18T13:28:04.232Z,772
2022-11-18T13:29:05.427Z,672
2022-11-18T13:30:06.228Z,712
2022-11-18T13:31:06.543Z,748
2022-11-18T13:32:07.169Z,768
2022-11-18T13:33:08.091Z,968
2022-11-18T13:34:08.314Z,872
2022-11-18T13:35:08.860Z,908
2022-11-18T13:36:08.872Z,928
2022-11-18T13:37:10.104Z,1176
2022-11-18T13:38:10.319Z,852
2022-11-18T13:39:10.566Z,820
2022-11-18T13:40:11.289Z,776
2022-11-18T13:41:11.486Z,748
2022-11-18T13:42:11.741Z,728
2022-11-18T13:43:12.225Z,700
2022-11-18T13:44:12.413Z,692
2022-11-18T13:45:13.355Z,736
2022-11-18T13:46:14.374Z,800
2022-11-18T13:47:15.027Z,856
2022-11-18T13:48:15.648Z,888
2022-11-18T13:49:16.792Z,900
2022-11-18T13:50:16.667Z,908
2022-11-18T13:51:17.304Z,900
2022-11-18T13:52:18.532Z,892
2022-11-18T13:53:18.451Z,888
2022-11-18T13:54:19.665Z,888
2022-11-18T13:55:20.591Z,864
2022-11-18T13:56:20.498Z,852
2022-11-18T13:57:21.462Z,828
2022-11-18T13:58:21.426Z,828
2022-11-18T13:59:28.969Z,828
2022-11-18T14:00:22.521Z,808
2022-11-18T14:01:23.907Z,780
2022-11-18T14:02:23.863Z,736
2022-11-18T14:03:24.828Z,700
2022-11-18T14:04:25.041Z,708
2022-11-18T14:05:31.454Z,692
2022-11-18T14:06:25.692Z,672
2022-11-18T14:07:26.175Z,632
2022-11-18T14:08:26.570Z,564
2022-11-18T14:09:27.976Z,492
2022-11-18T14:10:27.843Z,496
2022-11-18T14:11:29.090Z,480
2022-11-18T14:12:29.081Z,440
2022-11-18T14:13:30.586Z,456
2022-11-18T14:14:31.389Z,508
2022-11-18T14:15:31.884Z,572
2022-11-18T14:16:32.309Z,664
2022-11-18T14:17:32.201Z,672
2022-11-18T14:18:32.846Z,632
2022-11-18T14:19:34.047Z,644
2022-11-18T14:20:34.051Z,592
2022-11-18T14:21:34.684Z,552
2022-11-18T14:22:35.893Z,516